createdAt,value
2023-05-24T00:02:53.626Z,17.02
2023-05-24T00:07:57.488Z,16.99
2023-05-24T00:13:00.763Z,16.96
2023-05-24T00:18:05.069Z,16.94
2023-05-24T00:23:08.474Z,16.93
2023-05-24T00:28:12.064Z,16.91
2023-05-24T00:33:16.051Z,16.92
2023-05-24T00:38:19.334Z,16.91
2023-05-24T00:43:23.718Z,16.88
2023-05-24T00:48:29.077Z,16.88
2023-05-24T00:53:33.592Z,16.85
2023-05-24T00:58:37.017Z,16.83
2023-05-24T01:03:42.065Z,16.79
2023-05-24T01:09:10.432Z,16.75
2023-05-24T01:14:42.169Z,16.73
2023-05-24T01:19:56.757Z,16.72
2023-05-24T01:25:07.762Z,16.70
2023-05-24T01:30:12.626Z,16.67
2023-05-24T01:35:16.116Z,16.63
2023-05-24T01:40:19.692Z,16.56
2023-05-24T01:45:44.173Z,16.53
2023-05-24T01:51:06.876Z,16.51
2023-05-24T01:56:12.591Z,16.47
2023-05-24T02:01:16.365Z,16.43
2023-05-24T02:06:20.181Z,16.41
2023-05-24T02:11:23.683Z,16.38
2023-05-24T02:16:31.005Z,16.34
2023-05-24T02:21:34.392Z,16.28
2023-05-24T02:26:38.724Z,16.24
2023-05-24T02:31:42.170Z,16.20
2023-05-24T02:36:46.134Z,16.17
2023-05-24T02:41:49.389Z,16.12
2023-05-24T02:46:52.781Z,16.09
2023-05-24T02:51:56.584Z,16.07
2023-05-24T02:57:00.016Z,16.07
2023-05-24T03:02:03.515Z,16.09
2023-05-24T03:07:07.059Z,16.13
2023-05-24T03:12:11.339Z,16.17
2023-05-24T03:17:14.644Z,16.28
2023-05-24T03:22:18.038Z,16.33
2023-05-24T03:27:21.389Z,16.41
2023-05-24T03:32:24.722Z,16.53
2023-05-24T03:37:28.554Z,16.61
2023-05-24T03:42:32.366Z,16.71
2023-05-24T03:47:35.872Z,16.82
2023-05-24T03:52:39.281Z,16.93
2023-05-24T03:57:45.671Z,17.09
2023-05-24T04:02:49.384Z,17.28
2023-05-24T04:07:53.010Z,17.48
2023-05-24T04:12:57.725Z,17.64
2023-05-24T04:18:03.591Z,17.84
2023-05-24T04:23:07.425Z,18.01
2023-05-24T04:28:10.801Z,18.18
2023-05-24T04:33:15.140Z,18.34
2023-05-24T04:38:22.000Z,18.49
2023-05-24T04:43:28.922Z,18.63
2023-05-24T04:48:32.281Z,18.75
2023-05-24T04:53:35.662Z,18.85
2023-05-24T04:58:39.461Z,18.92
2023-05-24T05:03:45.435Z,19.01
2023-05-24T05:08:49.017Z,19.07
2023-05-24T05:13:52.616Z,19.13
2023-05-24T05:18:56.317Z,19.18
2023-05-24T05:24:00.360Z,19.19
2023-05-24T05:29:04.088Z,19.24
2023-05-24T05:34:10.267Z,19.33
2023-05-24T05:39:14.341Z,19.42
2023-05-24T05:44:17.953Z,19.57
2023-05-24T05:49:21.322Z,19.72
2023-05-24T05:54:24.802Z,19.82
2023-05-24T05:59:28.334Z,19.85
2023-05-24T06:04:31.726Z,19.93
2023-05-24T06:09:35.164Z,19.98
2023-05-24T06:14:38.727Z,20.05
2023-05-24T06:19:42.176Z,20.11
2023-05-24T06:24:46.134Z,20.26
2023-05-24T06:29:49.689Z,20.46
2023-05-24T06:34:53.396Z,20.60
2023-05-24T06:39:56.827Z,20.81
2023-05-24T06:45:00.138Z,21.14
2023-05-24T06:50:04.841Z,21.61
2023-05-24T06:55:09.063Z,22.06
2023-05-24T07:00:13.433Z,22.45
2023-05-24T07:05:17.418Z,22.63
2023-05-24T07:10:20.969Z,22.85
2023-05-24T07:15:24.474Z,23.13
2023-05-24T07:20:28.573Z,23.52
2023-05-24T07:25:32.998Z,23.95
2023-05-24T07:30:38.969Z,24.30
2023-05-24T07:35:42.768Z,24.51
2023-05-24T07:40:46.446Z,24.63
2023-05-24T07:45:49.890Z,24.71
2023-05-24T07:50:53.320Z,24.89
2023-05-24T07:55:57.002Z,25.12
2023-05-24T08:01:00.575Z,25.29
2023-05-24T08:06:04.387Z,25.44
2023-05-24T08:11:08.460Z,25.61
2023-05-24T08:16:11.876Z,25.63
2023-05-24T08:21:15.484Z,25.73
2023-05-24T08:26:21.175Z,25.85
2023-05-24T08:31:24.748Z,26.00
2023-05-24T08:36:28.677Z,26.21
2023-05-24T08:41:37.768Z,26.63
2023-05-24T08:46:41.642Z,27.10
2023-05-24T08:51:46.139Z,27.42
2023-05-24T08:56:49.989Z,27.64
2023-05-24T09:01:54.801Z,27.73
2023-05-24T09:06:59.170Z,27.79
2023-05-24T09:12:06.348Z,27.93
2023-05-24T09:17:09.959Z,28.29
2023-05-24T09:22:14.881Z,28.39
2023-05-24T09:27:22.520Z,28.34
2023-05-24T09:32:26.086Z,28.43
2023-05-24T09:37:32.547Z,28.63
2023-05-24T09:42:36.653Z,28.89
2023-05-24T09:47:42.358Z,29.15
2023-05-24T09:52:46.046Z,29.45
2023-05-24T09:58:05.322Z,29.67
2023-05-24T10:03:12.237Z,29.87
2023-05-24T10:08:16.553Z,29.89
2023-05-24T10:13:23.153Z,30.05
2023-05-24T10:18:26.702Z,30.16
2023-05-24T10:23:31.569Z,30.14
2023-05-24T10:28:39.016Z,30.18
2023-05-24T10:33:45.434Z,30.28
2023-05-24T10:38:49.134Z,30.56
2023-05-24T10:44:08.634Z,30.78
2023-05-24T10:49:15.297Z,30.96
2023-05-24T10:54:19.997Z,30.78
2023-05-24T10:59:24.525Z,30.64
2023-05-24T11:04:32.563Z,30.77
2023-05-24T11:09:37.789Z,30.97
2023-05-24T11:14:41.260Z,31.14
2023-05-24T11:19:55.445Z,31.25
2023-05-24T11:25:04.152Z,31.40
2023-05-24T11:30:09.074Z,31.36
2023-05-24T11:35:12.604Z,31.29
2023-05-24T11:40:17.516Z,31.34
2023-05-24T11:45:21.605Z,31.76
2023-05-24T11:50:26.661Z,32.18
2023-05-24T11:55:33.099Z,32.59
2023-05-24T12:00:36.766Z,33.25
2023-05-24T12:05:40.213Z,33.51
2023-05-24T12:10:44.422Z,33.61
2023-05-24T12:15:53.863Z,34.13
2023-05-24T12:21:11.954Z,34.38
2023-05-24T12:26:21.077Z,34.30
2023-05-24T12:31:24.535Z,34.17
2023-05-24T12:36:33.562Z,33.87
2023-05-24T12:41:36.989Z,33.65
2023-05-24T12:46:40.635Z,33.64
2023-05-24T12:51:44.034Z,33.51
2023-05-24T12:56:47.633Z,33.18
2023-05-24T13:01:52.223Z,32.72
2023-05-24T13:06:56.128Z,32.29
2023-05-24T13:11:59.647Z,31.78
2023-05-24T13:17:03.411Z,31.59
2023-05-24T13:22:07.496Z,31.43
2023-05-24T13:27:11.322Z,31.30
2023-05-24T13:32:14.840Z,31.41
2023-05-24T13:37:19.679Z,31.63
2023-05-24T13:42:23.457Z,31.81
2023-05-24T13:47:38.637Z,32.06
2023-05-24T13:52:44.015Z,32.95
2023-05-24T13:57:51.576Z,33.24
2023-05-24T14:02:56.257Z,34.26
2023-05-24T14:08:06.683Z,36.51
2023-05-24T14:13:36.889Z,36.67
2023-05-24T14:18:34.908Z,39.18
2023-05-24T14:23:39.450Z,40.64
2023-05-24T14:28:42.867Z,39.89
2023-05-24T14:33:46.376Z,40.33
2023-05-24T14:38:49.896Z,44.48
2023-05-24T14:43:53.506Z,48.86
2023-05-24T14:48:57.013Z,47.86
2023-05-24T14:54:00.373Z,46.36
2023-05-24T14:59:03.812Z,43.36
2023-05-24T15:04:07.204Z,40.84
2023-05-24T15:09:12.111Z,38.68
2023-05-24T15:14:15.732Z,36.74
2023-05-24T15:19:19.262Z,35.19
2023-05-24T15:24:22.773Z,34.05
2023-05-24T15:29:26.391Z,33.19
2023-05-24T15:34:30.005Z,33.07
2023-05-24T15:39:34.748Z,33.58
2023-05-24T15:44:38.471Z,35.50
2023-05-24T15:49:41.987Z,39.79
2023-05-24T15:54:45.460Z,45.13
2023-05-24T15:59:48.866Z,48.86
2023-05-24T16:04:52.321Z,50.30
2023-05-24T16:09:56.039Z,51.07
2023-05-24T16:15:02.844Z,48.83
2023-05-24T16:20:07.249Z,46.43
2023-05-24T16:25:11.197Z,48.35
2023-05-24T16:30:14.824Z,50.73
2023-05-24T16:35:18.186Z,51.82
2023-05-24T16:40:22.361Z,50.11
2023-05-24T16:45:25.890Z,45.78
2023-05-24T16:50:29.443Z,42.77
2023-05-24T16:55:33.221Z,40.10
2023-05-24T17:00:36.830Z,39.41
2023-05-24T17:05:40.655Z,40.77
2023-05-24T17:10:44.155Z,40.68
2023-05-24T17:15:48.165Z,40.16
2023-05-24T17:20:52.212Z,38.58
2023-05-24T17:25:56.471Z,36.56
2023-05-24T17:31:01.730Z,34.63
2023-05-24T17:36:06.561Z,33.16
2023-05-24T17:41:10.192Z,31.79
2023-05-24T17:46:14.556Z,30.69
2023-05-24T17:51:19.732Z,29.78
2023-05-24T17:56:23.691Z,28.80
2023-05-24T18:01:28.167Z,27.99
2023-05-24T18:06:32.263Z,27.26
2023-05-24T18:11:36.570Z,26.62
2023-05-24T18:16:39.991Z,26.07
2023-05-24T18:21:43.837Z,25.57
2023-05-24T18:26:47.504Z,25.06
2023-05-24T18:31:51.960Z,24.61
2023-05-24T18:36:55.934Z,24.20
2023-05-24T18:41:59.379Z,23.84
2023-05-24T18:47:03.061Z,23.58
2023-05-24T18:52:06.876Z,23.37
2023-05-24T18:57:10.747Z,23.20
2023-05-24T19:02:14.137Z,23.04
2023-05-24T19:07:17.928Z,22.92
2023-05-24T19:12:21.348Z,22.80
2023-05-24T19:17:25.567Z,22.67
2023-05-24T19:22:29.571Z,22.53
2023-05-24T19:27:33.121Z,22.37
2023-05-24T19:32:38.834Z,22.24
2023-05-24T19:37:42.403Z,22.13
2023-05-24T19:42:46.027Z,22.02
2023-05-24T19:47:49.777Z,21.92
2023-05-24T19:52:53.358Z,21.80
2023-05-24T19:57:56.719Z,21.72
2023-05-24T20:03:00.515Z,21.60
2023-05-24T20:08:04.314Z,21.47
2023-05-24T20:13:07.838Z,21.35
2023-05-24T20:18:11.452Z,21.20
2023-05-24T20:23:15.070Z,21.09
2023-05-24T20:28:29.490Z,20.99
2023-05-24T20:33:38.578Z,20.91
2023-05-24T20:38:42.327Z,20.84
2023-05-24T20:43:45.958Z,20.76
2023-05-24T20:48:49.657Z,20.65
2023-05-24T20:53:53.673Z,20.52
2023-05-24T20:59:00.280Z,20.41
2023-05-24T21:04:04.098Z,20.28
2023-05-24T21:09:07.602Z,20.12
2023-05-24T21:14:11.218Z,19.91
2023-05-24T21:19:14.425Z,19.79
2023-05-24T21:24:17.946Z,19.67
2023-05-24T21:29:21.469Z,19.57
2023-05-24T21:34:24.870Z,19.46
2023-05-24T21:39:28.486Z,19.36
2023-05-24T21:44:31.912Z,19.30
2023-05-24T21:49:35.518Z,19.26
2023-05-24T21:54:38.933Z,19.21
2023-05-24T21:59:42.444Z,19.14
2023-05-24T22:04:46.269Z,19.06
2023-05-24T22:09:49.791Z,18.95
2023-05-24T22:14:53.199Z,18.87
2023-05-24T22:19:56.719Z,18.76
2023-05-24T22:25:02.295Z,18.60
2023-05-24T22:30:07.023Z,18.41
2023-05-24T22:35:10.765Z,18.29
2023-05-24T22:40:14.471Z,18.20
2023-05-24T22:45:18.805Z,18.08
2023-05-24T22:50:22.626Z,17.98
2023-05-24T22:55:26.552Z,17.87
2023-05-24T23:00:30.068Z,17.68
2023-05-24T23:05:36.036Z,17.50
2023-05-24T23:10:46.001Z,17.34
2023-05-24T23:15:49.521Z,17.15
2023-05-24T23:20:56.333Z,16.99
2023-05-24T23:25:59.830Z,16.84
2023-05-24T23:31:03.400Z,16.72
2023-05-24T23:36:07.575Z,16.59
2023-05-24T23:41:11.099Z,16.46
2023-05-24T23:46:17.330Z,16.28
2023-05-24T23:51:21.094Z,16.09
2023-05-24T23:56:24.618Z,15.91
